Time;durP1;ratioP1;P1;durP2;ratioP2;P2;SDS_P1;SDS_P2;PMS_P1;PMS_P2;Temp;Humidity;BMP_temperature;BMP_pressure;BME280_temperature;BME280_humidity;BME280_pressure;Samples;Min_cycle;Max_cycle;Signal;HPM_P1;HPM_P2
2023/03/17 00:01:13;;;;;;;4.55;3.40;;;;;;;;;;5070406;28;20049;-59
2023/03/17 00:03:40;;;;;;;6.15;3.47;;;;;;;;;;5071034;28;20052;-58
2023/03/17 00:06:09;;;;;;;6.72;3.72;;;;;;;;;;5071023;28;20036;-58
2023/03/17 00:08:35;;;;;;;4.72;3.33;;;;;;;;;;5070311;28;20048;-59
2023/03/17 00:11:01;;;;;;;4.95;3.38;;;;;;;;;;5069633;28;20033;-58
2023/03/17 00:13:29;;;;;;;4.47;3.20;;;;;;;;;;5071280;28;20478;-58
2023/03/17 00:15:58;;;;;;;12.23;3.50;;;;;;;;;;5070473;28;20051;-59
2023/03/17 00:18:24;;;;;;;4.13;3.20;;;;;;;;;;5071020;28;20040;-59
2023/03/17 00:20:51;;;;;;;4.82;3.47;;;;;;;;;;5070970;28;20131;-57
2023/03/17 00:23:21;;;;;;;4.93;3.50;;;;;;;;;;5069948;28;20057;-59
2023/03/17 00:25:47;;;;;;;5.97;3.40;;;;;;;;;;5057529;28;20045;-56
2023/03/17 00:28:19;;;;;;;5.70;3.90;;;;;;;;;;5070980;28;20044;-59
2023/03/17 00:30:46;;;;;;;5.18;3.45;;;;;;;;;;5070054;28;20040;-59
2023/03/17 00:33:14;;;;;;;5.63;3.53;;;;;;;;;;5071155;28;20040;-59
2023/03/17 00:35:41;;;;;;;4.28;2.85;;;;;;;;;;5069345;28;20052;-59
2023/03/17 00:38:10;;;;;;;4.65;3.20;;;;;;;;;;5070473;28;20123;-59
2023/03/17 00:40:36;;;;;;;4.88;3.30;;;;;;;;;;5070600;28;20094;-59
2023/03/17 00:43:02;;;;;;;4.85;3.42;;;;;;;;;;5070412;28;20577;-59
2023/03/17 00:45:29;;;;;;;4.85;3.05;;;;;;;;;;5070395;28;20550;-58
2023/03/17 00:47:55;;;;;;;7.85;3.28;;;;;;;;;;5070587;28;20044;-58
2023/03/17 00:50:26;;;;;;;5.18;3.58;;;;;;;;;;5070408;28;20040;-58
2023/03/17 00:52:53;;;;;;;4.93;3.65;;;;;;;;;;5070429;28;20360;-58
2023/03/17 00:55:20;;;;;;;5.88;3.38;;;;;;;;;;5070735;28;20033;-59
2023/03/17 00:57:47;;;;;;;7.93;3.35;;;;;;;;;;5070688;28;20037;-58
2023/03/17 01:00:21;;;;;;;4.75;3.05;;;;;;;;;;5069866;28;20050;-58
2023/03/17 01:02:48;;;;;;;6.40;4.07;;;;;;;;;;5070552;28;20041;-59
2023/03/17 01:05:15;;;;;;;5.93;3.45;;;;;;;;;;5070550;28;20045;-59
2023/03/17 01:07:42;;;;;;;6.57;3.40;;;;;;;;;;5069952;28;20041;-59
2023/03/17 01:10:13;;;;;;;9.63;3.55;;;;;;;;;;5070225;28;20036;-59
2023/03/17 01:12:39;;;;;;;6.20;3.50;;;;;;;;;;5070593;28;20036;-59
2023/03/17 01:15:05;;;;;;;4.10;3.33;;;;;;;;;;5063372;28;21002;-58
2023/03/17 01:17:32;;;;;;;5.95;3.22;;;;;;;;;;5050244;28;20605;-59
2023/03/17 01:19:58;;;;;;;5.22;3.30;;;;;;;;;;5058460;28;20044;-59
2023/03/17 01:22:24;;;;;;;8.10;3.65;;;;;;;;;;5073166;28;20060;-59
2023/03/17 01:24:50;;;;;;;8.20;4.13;;;;;;;;;;5071799;28;20686;-59
2023/03/17 01:27:18;;;;;;;7.30;3.55;;;;;;;;;;5073573;28;20063;-58
2023/03/17 01:29:44;;;;;;;5.65;3.30;;;;;;;;;;5073348;28;20199;-58
2023/03/17 01:32:11;;;;;;;5.22;3.38;;;;;;;;;;5074045;28;20044;-59
2023/03/17 01:34:38;;;;;;;10.63;3.70;;;;;;;;;;5074197;28;20458;-59
2023/03/17 01:37:04;;;;;;;6.60;3.90;;;;;;;;;;5073034;28;20044;-59
2023/03/17 01:39:30;;;;;;;5.40;3.38;;;;;;;;;;5073332;28;20044;-59
2023/03/17 01:42:00;;;;;;;7.32;3.45;;;;;;;;;;5073618;28;20370;-59
2023/03/17 01:44:26;;;;;;;5.53;3.92;;;;;;;;;;5073016;28;20455;-58
2023/03/17 01:46:53;;;;;;;7.13;3.65;;;;;;;;;;5072898;28;20651;-59
2023/03/17 01:49:22;;;;;;;7.53;3.58;;;;;;;;;;5073557;28;20379;-58
2023/03/17 01:51:54;;;;;;;7.38;3.60;;;;;;;;;;5072927;28;20127;-58
2023/03/17 01:54:23;;;;;;;7.90;3.40;;;;;;;;;;5073144;28;20094;-59
2023/03/17 01:56:51;;;;;;;6.47;3.33;;;;;;;;;;5073200;28;20032;-58
2023/03/17 01:59:19;;;;;;;6.50;3.53;;;;;;;;;;5072799;28;20037;-59
2023/03/17 02:01:47;;;;;;;5.28;3.47;;;;;;;;;;5073338;28;20080;-59
2023/03/17 02:04:14;;;;;;;5.75;3.45;;;;;;;;;;5073148;28;20047;-59
2023/03/17 02:06:42;;;;;;;6.82;3.70;;;;;;;;;;5072121;28;20044;-59
2023/03/17 02:09:08;;;;;;;4.57;3.67;;;;;;;;;;5073097;28;20383;-59
2023/03/17 02:11:34;;;;;;;8.00;4.00;;;;;;;;;;5073408;28;20067;-59
2023/03/17 02:14:01;;;;;;;7.28;3.85;;;;;;;;;;5072839;28;20033;-59
2023/03/17 02:16:29;;;;;;;7.05;3.45;;;;;;;;;;5072609;28;20040;-58
2023/03/17 02:18:56;;;;;;;3.78;2.85;;;;;;;;;;5072877;28;20166;-58
2023/03/17 02:21:37;;;;;;;6.40;3.22;;;;;;;;;;5072044;28;20478;-57
2023/03/17 02:24:06;;;;;;;7.72;3.67;;;;;;;;;;5072921;28;20051;-57
2023/03/17 02:26:32;;;;;;;6.63;3.67;;;;;;;;;;5060122;28;20170;-58
2023/03/17 02:28:58;;;;;;;6.20;3.63;;;;;;;;;;5066074;28;20043;-58
2023/03/17 02:31:25;;;;;;;4.40;3.13;;;;;;;;;;5072659;28;20538;-58
2023/03/17 02:33:52;;;;;;;4.40;3.15;;;;;;;;;;5072879;28;20033;-59
2023/03/17 02:36:18;;;;;;;7.07;3.35;;;;;;;;;;5070950;28;20037;-59
2023/03/17 02:38:44;;;;;;;5.30;3.10;;;;;;;;;;5072364;28;20052;-58
2023/03/17 02:41:10;;;;;;;6.65;3.70;;;;;;;;;;5072728;28;20064;-59
2023/03/17 02:43:36;;;;;;;6.90;3.90;;;;;;;;;;5071909;28;20059;-58
2023/03/17 02:46:04;;;;;;;7.10;3.80;;;;;;;;;;5072776;28;20065;-59
2023/03/17 02:48:30;;;;;;;10.02;3.70;;;;;;;;;;5072289;28;20041;-59
2023/03/17 02:50:57;;;;;;;5.28;3.35;;;;;;;;;;5071836;28;20087;-59
2023/03/17 02:53:23;;;;;;;10.68;3.85;;;;;;;;;;5072610;28;20040;-59
2023/03/17 02:55:49;;;;;;;8.75;3.60;;;;;;;;;;5072394;28;20052;-59
2023/03/17 02:58:15;;;;;;;4.93;3.30;;;;;;;;;;5071552;28;20493;-58
2023/03/17 03:00:41;;;;;;;5.95;3.22;;;;;;;;;;5072179;28;20044;-59
2023/03/17 03:03:07;;;;;;;6.03;3.58;;;;;;;;;;5072290;28;20391;-59
2023/03/17 03:05:34;;;;;;;6.00;3.80;;;;;;;;;;5071451;28;20045;-59
2023/03/17 03:08:00;;;;;;;8.88;3.92;;;;;;;;;;5071841;28;20048;-59
2023/03/17 03:10:26;;;;;;;8.05;4.53;;;;;;;;;;5072468;28;20045;-58
2023/03/17 03:12:52;;;;;;;8.27;3.60;;;;;;;;;;5071187;28;20040;-58
2023/03/17 03:15:19;;;;;;;7.25;3.65;;;;;;;;;;5072107;28;20421;-58
2023/03/17 03:17:45;;;;;;;6.53;3.80;;;;;;;;;;5071708;28;20071;-59
2023/03/17 03:20:13;;;;;;;5.75;3.83;;;;;;;;;;5071083;28;20052;-59
2023/03/17 03:22:39;;;;;;;5.70;3.60;;;;;;;;;;5071498;28;20056;-57
2023/03/17 03:25:07;;;;;;;5.53;3.45;;;;;;;;;;5071707;28;20501;-58
2023/03/17 03:27:33;;;;;;;6.05;3.22;;;;;;;;;;5070797;28;20048;-58
2023/03/17 03:30:00;;;;;;;5.25;3.30;;;;;;;;;;5051546;28;20045;-59
2023/03/17 03:32:26;;;;;;;5.88;3.30;;;;;;;;;;5058630;28;20036;-59
2023/03/17 03:34:53;;;;;;;5.05;3.17;;;;;;;;;;5070855;28;20071;-59
2023/03/17 03:37:19;;;;;;;5.00;3.42;;;;;;;;;;5071536;28;20049;-59
2023/03/17 03:39:46;;;;;;;5.32;3.22;;;;;;;;;;5071152;28;20383;-59
2023/03/17 03:42:12;;;;;;;7.20;3.55;;;;;;;;;;5070595;28;20052;-59
2023/03/17 03:44:38;;;;;;;5.78;3.65;;;;;;;;;;5071059;28;20048;-58
2023/03/17 03:47:04;;;;;;;4.03;2.88;;;;;;;;;;5071405;28;20071;-59
2023/03/17 03:49:30;;;;;;;8.45;3.28;;;;;;;;;;5070786;28;20401;-59
2023/03/17 03:51:57;;;;;;;6.70;3.22;;;;;;;;;;5070969;28;20119;-59
2023/03/17 03:54:23;;;;;;;5.13;3.25;;;;;;;;;;5071538;28;20521;-58
2023/03/17 03:56:49;;;;;;;5.68;3.50;;;;;;;;;;5071276;28;20107;-58
2023/03/17 03:59:15;;;;;;;7.30;3.97;;;;;;;;;;5070235;28;20125;-59
2023/03/17 04:01:41;;;;;;;4.72;3.13;;;;;;;;;;5071220;28;20082;-58
2023/03/17 04:04:07;;;;;;;3.55;2.78;;;;;;;;;;5071409;28;20064;-58
2023/03/17 04:06:33;;;;;;;7.38;3.47;;;;;;;;;;5070657;28;20463;-58
2023/03/17 04:09:02;;;;;;;4.40;2.90;;;;;;;;;;5070770;28;20047;-59
2023/03/17 04:11:28;;;;;;;5.22;3.25;;;;;;;;;;5071329;28;20043;-59
2023/03/17 04:13:54;;;;;;;4.03;3.00;;;;;;;;;;5070453;28;20044;-59
2023/03/17 04:16:20;;;;;;;6.47;3.55;;;;;;;;;;5071072;28;20071;-59
2023/03/17 04:18:46;;;;;;;5.25;3.47;;;;;;;;;;5070970;28;20062;-59
2023/03/17 04:21:17;;;;;;;5.90;3.33;;;;;;;;;;5070155;28;20386;-59
2023/03/17 04:23:44;;;;;;;8.27;3.47;;;;;;;;;;5071200;28;20067;-59
2023/03/17 04:26:11;;;;;;;5.50;3.40;;;;;;;;;;5070706;28;20048;-58
2023/03/17 04:28:37;;;;;;;5.47;3.25;;;;;;;;;;5070167;28;20045;-58
2023/03/17 04:31:03;;;;;;;5.47;3.08;;;;;;;;;;5070527;28;20040;-59
2023/03/17 04:33:29;;;;;;;6.93;3.50;;;;;;;;;;5070599;28;20052;-59
2023/03/17 04:35:55;;;;;;;8.10;3.45;;;;;;;;;;5070226;28;20044;-57
2023/03/17 04:38:21;;;;;;;5.97;3.63;;;;;;;;;;5070994;28;20165;-58
2023/03/17 04:40:49;;;;;;;6.60;3.15;;;;;;;;;;5070031;28;20048;-58
2023/03/17 04:43:15;;;;;;;4.78;3.58;;;;;;;;;;5070119;28;20044;-59
2023/03/17 04:45:41;;;;;;;5.90;3.22;;;;;;;;;;5070838;28;20490;-59
2023/03/17 04:48:07;;;;;;;4.53;3.28;;;;;;;;;;5070374;28;20051;-58
2023/03/17 04:50:33;;;;;;;7.10;3.22;;;;;;;;;;5069959;28;20693;-59
2023/03/17 04:53:00;;;;;;;7.05;3.78;;;;;;;;;;5070735;28;20801;-59
2023/03/17 04:55:26;;;;;;;6.20;3.70;;;;;;;;;;5071849;28;20043;-59
2023/03/17 04:57:53;;;;;;;4.18;2.95;;;;;;;;;;5074121;28;20094;-59
2023/03/17 05:00:20;;;;;;;5.88;3.28;;;;;;;;;;5074171;28;20093;-59
2023/03/17 05:02:46;;;;;;;4.57;3.45;;;;;;;;;;5074656;28;20135;-58
2023/03/17 05:05:12;;;;;;;7.07;3.40;;;;;;;;;;5073929;28;20508;-58
2023/03/17 05:07:39;;;;;;;5.82;3.38;;;;;;;;;;5074572;28;20051;-58
2023/03/17 05:10:05;;;;;;;5.68;3.60;;;;;;;;;;5074015;28;20040;-58
2023/03/17 05:12:31;;;;;;;5.05;2.92;;;;;;;;;;5073707;28;20040;-59
2023/03/17 05:14:57;;;;;;;7.03;3.70;;;;;;;;;;5074547;28;20037;-59
2023/03/17 05:17:23;;;;;;;8.00;3.40;;;;;;;;;;5074078;28;20398;-59
2023/03/17 05:19:49;;;;;;;5.60;3.25;;;;;;;;;;5073295;28;20047;-59
2023/03/17 05:22:15;;;;;;;5.65;3.60;;;;;;;;;;5073649;28;20057;-59
2023/03/17 05:24:42;;;;;;;8.40;3.70;;;;;;;;;;5074025;28;20059;-58
2023/03/17 05:27:08;;;;;;;7.97;3.80;;;;;;;;;;5073484;28;20045;-58
2023/03/17 05:29:34;;;;;;;7.68;3.55;;;;;;;;;;5073535;28;20048;-59
2023/03/17 05:32:00;;;;;;;7.30;3.40;;;;;;;;;;5073802;28;20067;-59
2023/03/17 05:34:26;;;;;;;8.00;4.00;;;;;;;;;;5073334;28;20036;-59
2023/03/17 05:36:52;;;;;;;6.75;3.13;;;;;;;;;;5073827;28;20112;-59
2023/03/17 05:39:18;;;;;;;6.90;3.83;;;;;;;;;;5073794;28;20043;-59
2023/03/17 05:41:44;;;;;;;6.43;3.95;;;;;;;;;;5072571;28;20506;-58
2023/03/17 05:44:10;;;;;;;4.55;3.40;;;;;;;;;;5073804;28;20059;-59
2023/03/17 05:46:36;;;;;;;8.80;4.05;;;;;;;;;;5073941;28;20539;-58
2023/03/17 05:49:02;;;;;;;7.30;3.60;;;;;;;;;;5072954;28;20037;-59
2023/03/17 05:51:28;;;;;;;8.52;3.78;;;;;;;;;;5073802;28;20033;-59
2023/03/17 05:53:55;;;;;;;6.70;3.72;;;;;;;;;;5073773;28;20067;-59
2023/03/17 05:56:22;;;;;;;7.03;3.50;;;;;;;;;;5073224;28;20036;-59
2023/03/17 05:58:48;;;;;;;6.28;3.30;;;;;;;;;;5073965;28;20048;-58
2023/03/17 06:01:14;;;;;;;6.63;3.63;;;;;;;;;;5073574;28;20052;-59
2023/03/17 06:03:40;;;;;;;7.18;3.25;;;;;;;;;;5072933;28;20072;-59
2023/03/17 06:06:08;;;;;;;5.93;3.65;;;;;;;;;;5073107;28;20044;-57
2023/03/17 06:08:34;;;;;;;7.47;3.88;;;;;;;;;;5073593;28;20041;-58
2023/03/17 06:11:00;;;;;;;8.18;3.90;;;;;;;;;;5072885;28;20395;-59
2023/03/17 06:13:26;;;;;;;5.63;3.78;;;;;;;;;;5073299;28;20044;-59
2023/03/17 06:15:52;;;;;;;8.52;4.53;;;;;;;;;;5073651;28;20402;-59
2023/03/17 06:18:18;;;;;;;7.13;3.70;;;;;;;;;;5072872;28;20051;-58
2023/03/17 06:20:45;;;;;;;6.70;3.58;;;;;;;;;;5072861;28;20064;-59
2023/03/17 06:23:11;;;;;;;5.30;3.65;;;;;;;;;;5073165;28;20096;-58
2023/03/17 06:25:37;;;;;;;7.43;3.83;;;;;;;;;;5072240;28;20028;-59
2023/03/17 06:28:04;;;;;;;6.10;3.70;;;;;;;;;;5073424;28;20088;-58
2023/03/17 06:30:32;;;;;;;6.07;3.95;;;;;;;;;;5073251;28;20040;-58
2023/03/17 06:32:58;;;;;;;6.35;3.78;;;;;;;;;;5072370;28;20410;-57
2023/03/17 06:35:24;;;;;;;6.05;3.95;;;;;;;;;;5073075;28;20043;-59
2023/03/17 06:37:51;;;;;;;6.32;3.40;;;;;;;;;;5073205;28;20448;-58
2023/03/17 06:40:17;;;;;;;7.63;3.67;;;;;;;;;;5072389;28;20170;-58
2023/03/17 06:42:43;;;;;;;7.47;3.35;;;;;;;;;;5072568;28;20044;-59
2023/03/17 06:45:09;;;;;;;6.88;3.67;;;;;;;;;;5072914;28;20360;-58
2023/03/17 06:47:36;;;;;;;6.40;3.63;;;;;;;;;;5072204;28;20533;-59
2023/03/17 06:50:02;;;;;;;4.72;3.40;;;;;;;;;;5070533;28;20068;-59
2023/03/17 06:52:28;;;;;;;6.65;3.58;;;;;;;;;;5054390;28;20371;-59
2023/03/17 06:54:54;;;;;;;8.32;3.55;;;;;;;;;;5055709;28;20045;-61
2023/03/17 06:57:21;;;;;;;7.57;3.60;;;;;;;;;;5059972;28;20071;-61
2023/03/17 06:59:47;;;;;;;5.85;3.50;;;;;;;;;;5072417;28;20068;-61
2023/03/17 07:02:14;;;;;;;4.90;3.28;;;;;;;;;;5071238;28;20562;-61
2023/03/17 07:04:40;;;;;;;7.65;4.10;;;;;;;;;;5071896;28;20052;-61
2023/03/17 07:07:06;;;;;;;7.57;3.80;;;;;;;;;;5072037;28;20450;-60
2023/03/17 07:09:33;;;;;;;7.03;3.50;;;;;;;;;;5071160;28;20048;-59
2023/03/17 07:12:03;;;;;;;5.47;3.60;;;;;;;;;;5071521;28;20424;-59
2023/03/17 07:14:31;;;;;;;11.30;4.00;;;;;;;;;;5071794;28;20085;-62
2023/03/17 07:16:57;;;;;;;5.93;3.70;;;;;;;;;;5070715;28;20037;-62
2023/03/17 07:19:23;;;;;;;7.38;3.97;;;;;;;;;;5069374;28;20044;-62
2023/03/17 07:21:49;;;;;;;6.47;3.90;;;;;;;;;;5077676;28;20056;-62
2023/03/17 07:24:15;;;;;;;7.03;3.92;;;;;;;;;;5089183;28;20051;-62
2023/03/17 07:26:41;;;;;;;5.97;3.88;;;;;;;;;;5079654;28;20032;-63
2023/03/17 07:29:08;;;;;;;7.53;4.40;;;;;;;;;;5088529;28;20036;-62
2023/03/17 07:31:37;;;;;;;9.35;4.68;;;;;;;;;;5087585;28;20051;-62
2023/03/17 07:34:03;;;;;;;7.00;4.40;;;;;;;;;;5082653;28;20047;-61
2023/03/17 07:36:29;;;;;;;8.10;4.18;;;;;;;;;;5091344;28;20466;-61
2023/03/17 07:38:55;;;;;;;8.43;3.88;;;;;;;;;;5058987;28;20075;-63
2023/03/17 07:41:22;;;;;;;6.93;4.07;;;;;;;;;;5074778;28;20044;-62
2023/03/17 07:43:48;;;;;;;6.13;3.97;;;;;;;;;;5080497;28;20032;-62
2023/03/17 07:46:14;;;;;;;6.10;3.70;;;;;;;;;;5084844;28;20084;-63
2023/03/17 07:48:42;;;;;;;8.02;4.05;;;;;;;;;;5075034;28;20049;-62
2023/03/17 07:51:13;;;;;;;7.70;4.03;;;;;;;;;;5070302;28;20074;-62
2023/03/17 07:53:39;;;;;;;6.20;4.32;;;;;;;;;;5070425;28;20407;-61
2023/03/17 07:56:06;;;;;;;8.93;4.03;;;;;;;;;;5083290;28;20036;-61
2023/03/17 07:58:32;;;;;;;6.03;4.13;;;;;;;;;;5079662;28;20044;-62
2023/03/17 08:00:58;;;;;;;8.80;4.07;;;;;;;;;;5087846;28;20564;-63
2023/03/17 08:03:24;;;;;;;6.00;3.83;;;;;;;;;;5076953;28;20040;-63
2023/03/17 08:05:52;;;;;;;5.55;3.88;;;;;;;;;;5070632;28;20055;-62
2023/03/17 08:08:21;;;;;;;7.43;4.22;;;;;;;;;;5080243;28;20770;-59
2023/03/17 08:10:47;;;;;;;8.65;4.28;;;;;;;;;;5075505;28;20036;-62
2023/03/17 08:13:13;;;;;;;6.28;3.75;;;;;;;;;;5082878;28;20047;-61
2023/03/17 08:15:40;;;;;;;5.88;4.05;;;;;;;;;;5083794;28;20047;-62
2023/03/17 08:18:06;;;;;;;5.65;3.70;;;;;;;;;;5078028;28;20044;-62
2023/03/17 08:20:33;;;;;;;7.47;3.78;;;;;;;;;;5078246;28;20044;-62
2023/03/17 08:22:59;;;;;;;7.63;3.72;;;;;;;;;;5076247;28;20501;-62
2023/03/17 08:25:25;;;;;;;6.60;3.92;;;;;;;;;;5078152;28;20055;-61
2023/03/17 08:27:52;;;;;;;6.00;3.83;;;;;;;;;;5075182;28;20044;-62
2023/03/17 08:30:19;;;;;;;9.55;3.97;;;;;;;;;;5086082;28;20500;-63
2023/03/17 08:32:46;;;;;;;5.25;3.70;;;;;;;;;;5083694;28;20102;-62
2023/03/17 08:35:14;;;;;;;7.85;4.03;;;;;;;;;;5095834;28;20075;-61
2023/03/17 08:37:44;;;;;;;6.57;3.40;;;;;;;;;;5089538;28;20108;-61
2023/03/17 08:40:11;;;;;;;8.32;3.80;;;;;;;;;;5081591;28;20036;-61
2023/03/17 08:42:37;;;;;;;5.50;3.80;;;;;;;;;;5090191;28;20040;-62
2023/03/17 08:45:05;;;;;;;6.38;4.00;;;;;;;;;;5095566;28;20044;-63
2023/03/17 08:47:31;;;;;;;7.63;4.10;;;;;;;;;;5092287;28;20569;-63
2023/03/17 08:49:59;;;;;;;8.52;4.40;;;;;;;;;;5095797;28;20056;-61
2023/03/17 08:52:26;;;;;;;5.85;3.85;;;;;;;;;;5096615;28;20036;-61
2023/03/17 08:54:53;;;;;;;6.47;3.70;;;;;;;;;;5095531;28;20478;-60
2023/03/17 08:57:19;;;;;;;7.93;4.03;;;;;;;;;;5095805;28;20040;-61
2023/03/17 08:59:45;;;;;;;6.50;3.85;;;;;;;;;;5096554;28;20432;-61
2023/03/17 09:02:12;;;;;;;6.22;3.80;;;;;;;;;;5095491;28;20059;-61
2023/03/17 09:04:39;;;;;;;6.10;3.80;;;;;;;;;;5094515;28;20040;-61
2023/03/17 09:07:05;;;;;;;6.82;3.45;;;;;;;;;;5076521;28;20036;-60
2023/03/17 09:09:34;;;;;;;9.02;4.65;;;;;;;;;;5075920;28;20032;-59
2023/03/17 09:12:01;;;;;;;6.68;4.07;;;;;;;;;;5077176;28;20044;-62
2023/03/17 09:14:28;;;;;;;8.27;4.15;;;;;;;;;;5086266;28;20044;-61
2023/03/17 09:16:54;;;;;;;7.68;3.92;;;;;;;;;;5075382;28;20044;-62
2023/03/17 09:19:20;;;;;;;6.40;3.60;;;;;;;;;;5089428;28;20071;-62
2023/03/17 09:21:47;;;;;;;12.10;3.95;;;;;;;;;;5096218;28;20087;-62
2023/03/17 09:24:13;;;;;;;8.10;3.90;;;;;;;;;;5095775;28;20131;-62
2023/03/17 09:26:39;;;;;;;7.20;3.58;;;;;;;;;;5088011;28;20936;-62
2023/03/17 09:29:06;;;;;;;6.00;3.88;;;;;;;;;;5080595;28;20445;-63
2023/03/17 09:31:32;;;;;;;6.13;3.70;;;;;;;;;;5095973;28;20032;-62
2023/03/17 09:33:59;;;;;;;6.47;3.75;;;;;;;;;;5075458;28;20068;-63
2023/03/17 09:36:25;;;;;;;7.55;4.00;;;;;;;;;;5081228;28;20043;-62
2023/03/17 09:38:51;;;;;;;7.85;3.63;;;;;;;;;;5093651;28;20036;-63
2023/03/17 09:41:22;;;;;;;4.80;3.30;;;;;;;;;;5075698;28;20055;-61
2023/03/17 09:43:48;;;;;;;7.22;4.05;;;;;;;;;;5102428;28;20039;-62
2023/03/17 09:46:29;;;;;;;6.82;3.95;;;;;;;;;;5092027;28;20047;-63
2023/03/17 09:48:58;;;;;;;6.97;3.63;;;;;;;;;;5086548;28;20738;-62
2023/03/17 09:51:25;;;;;;;6.25;3.13;;;;;;;;;;5092377;28;20044;-61
2023/03/17 09:53:55;;;;;;;4.90;3.33;;;;;;;;;;5086714;28;20040;-61
2023/03/17 09:56:22;;;;;;;6.65;3.55;;;;;;;;;;5088140;28;20117;-61
2023/03/17 09:58:57;;;;;;;4.25;3.38;;;;;;;;;;5092017;28;20044;-62
2023/03/17 10:01:24;;;;;;;6.72;3.53;;;;;;;;;;5091839;28;20051;-61
2023/03/17 10:03:50;;;;;;;5.65;3.63;;;;;;;;;;5092784;28;20473;-61
2023/03/17 10:06:37;;;;;;;7.40;4.15;;;;;;;;;;5091341;28;20044;-62
2023/03/17 10:09:12;;;;;;;7.53;3.90;;;;;;;;;;5069948;28;20053;-61
2023/03/17 10:11:42;;;;;;;4.15;3.38;;;;;;;;;;5081446;28;20120;-62
2023/03/17 10:14:18;;;;;;;11.82;3.95;;;;;;;;;;5070582;28;20134;-62
2023/03/17 10:16:53;;;;;;;5.10;3.55;;;;;;;;;;5073123;28;20359;-62
2023/03/17 10:19:26;;;;;;;6.18;3.70;;;;;;;;;;5079529;28;20690;-62
2023/03/17 10:22:04;;;;;;;6.38;3.75;;;;;;;;;;5082667;28;20102;-62
2023/03/17 10:24:31;;;;;;;6.78;3.67;;;;;;;;;;5082100;28;20494;-62
2023/03/17 10:26:59;;;;;;;11.43;4.22;;;;;;;;;;5077629;28;20036;-62
2023/03/17 10:29:26;;;;;;;8.32;4.10;;;;;;;;;;5088961;28;20048;-61
2023/03/17 10:31:55;;;;;;;8.07;3.95;;;;;;;;;;5072202;28;20446;-62
2023/03/17 10:34:32;;;;;;;7.20;3.92;;;;;;;;;;5070712;28;20044;-63
2023/03/17 10:37:04;;;;;;;8.02;4.63;;;;;;;;;;5070532;28;20055;-63
2023/03/17 10:39:30;;;;;;;;;;;;;;;;;;5071641;28;20486;-61
2023/03/17 10:41:58;;;;;;;7.25;3.95;;;;;;;;;;5076202;28;19979;-61
2023/03/17 10:44:28;;;;;;;8.27;4.40;;;;;;;;;;5053525;28;20045;-62
2023/03/17 10:46:55;;;;;;;7.10;3.95;;;;;;;;;;5073355;28;20041;-62
2023/03/17 10:49:23;;;;;;;6.97;4.25;;;;;;;;;;5071163;28;20186;-62
2023/03/17 10:51:54;;;;;;;8.35;4.18;;;;;;;;;;5081469;28;20127;-63
2023/03/17 10:54:23;;;;;;;9.60;4.07;;;;;;;;;;5070985;28;20400;-64
2023/03/17 10:56:54;;;;;;;8.02;3.80;;;;;;;;;;5080451;28;20500;-61
2023/03/17 10:59:27;;;;;;;8.13;4.47;;;;;;;;;;5071572;28;20730;-61
2023/03/17 11:01:54;;;;;;;7.82;4.28;;;;;;;;;;5071116;28;20056;-62
2023/03/17 11:04:27;;;;;;;8.95;4.07;;;;;;;;;;5071247;28;20620;-63
2023/03/17 11:06:55;;;;;;;6.72;4.32;;;;;;;;;;5071343;28;20048;-60
2023/03/17 11:09:22;;;;;;;7.10;4.07;;;;;;;;;;5069809;28;20348;-63
2023/03/17 11:11:49;;;;;;;6.05;4.18;;;;;;;;;;5072101;28;20050;-63
2023/03/17 11:14:19;;;;;;;6.60;4.03;;;;;;;;;;5069972;28;20041;-63
2023/03/17 11:16:56;;;;;;;5.28;3.85;;;;;;;;;;5069400;28;20048;-64
2023/03/17 11:19:29;;;;;;;6.78;3.78;;;;;;;;;;5071763;28;20040;-62
2023/03/17 11:22:15;;;;;;;9.07;4.28;;;;;;;;;;5073317;28;20056;-62
2023/03/17 11:24:56;;;;;;;7.25;4.10;;;;;;;;;;5081818;28;20056;-62
2023/03/17 11:27:51;;;;;;;9.73;4.45;;;;;;;;;;5073187;28;20045;-63
2023/03/17 11:30:33;;;;;;;7.57;4.18;;;;;;;;;;5056077;28;20133;-62
2023/03/17 11:32:59;;;;;;;7.60;3.97;;;;;;;;;;5070230;28;20040;-63
2023/03/17 11:35:28;;;;;;;7.15;4.35;;;;;;;;;;5070379;28;20033;-62
2023/03/17 11:37:54;;;;;;;7.35;4.30;;;;;;;;;;5074104;28;20162;-63
2023/03/17 11:40:39;;;;;;;7.10;4.40;;;;;;;;;;5069317;28;20455;-63
2023/03/17 11:43:24;;;;;;;7.95;4.53;;;;;;;;;;5069071;28;20084;-63
2023/03/17 11:45:59;;;;;;;6.25;3.80;;;;;;;;;;5065977;28;20051;-63
2023/03/17 11:48:51;;;;;;;6.43;4.43;;;;;;;;;;5083852;28;20494;-63
2023/03/17 11:51:32;;;;;;;8.98;4.03;;;;;;;;;;5068196;28;20083;-63
2023/03/17 11:54:02;;;;;;;8.70;4.20;;;;;;;;;;5083532;28;20040;-63
2023/03/17 11:56:48;;;;;;;7.80;3.83;;;;;;;;;;5069345;28;20135;-63
2023/03/17 11:59:24;;;;;;;8.05;4.32;;;;;;;;;;5067710;28;20044;-63
2023/03/17 12:01:59;;;;;;;7.53;4.38;;;;;;;;;;5070437;28;20078;-63
2023/03/17 12:04:28;;;;;;;7.97;4.70;;;;;;;;;;5070108;28;20463;-63
2023/03/17 12:07:00;;;;;;;7.32;4.18;;;;;;;;;;5069424;28;20041;-63
2023/03/17 12:09:48;;;;;;;6.82;4.25;;;;;;;;;;5070600;28;20382;-63
2023/03/17 12:12:19;;;;;;;6.78;4.30;;;;;;;;;;5069160;28;20402;-63
2023/03/17 12:14:47;;;;;;;5.97;3.85;;;;;;;;;;5069586;28;20083;-63
2023/03/17 12:17:17;;;;;;;6.93;3.60;;;;;;;;;;5070041;28;20407;-63
2023/03/17 12:20:08;;;;;;;8.05;4.40;;;;;;;;;;5086693;28;20093;-63
2023/03/17 12:22:45;;;;;;;8.20;4.35;;;;;;;;;;5032043;28;20490;-64
2023/03/17 12:25:15;;;;;;;12.75;4.47;;;;;;;;;;5083978;28;20067;-62
2023/03/17 12:27:49;;;;;;;7.50;4.68;;;;;;;;;;5069092;28;20051;-63
2023/03/17 12:30:20;;;;;;;10.43;4.82;;;;;;;;;;5069860;28;20646;-63
2023/03/17 12:32:56;;;;;;;7.95;4.30;;;;;;;;;;5069848;28;20064;-62
2023/03/17 12:35:33;;;;;;;11.07;4.72;;;;;;;;;;5071471;28;20136;-64
2023/03/17 12:38:01;;;;;;;7.03;4.35;;;;;;;;;;5069744;28;20053;-64
2023/03/17 12:40:33;;;;;;;8.48;5.22;;;;;;;;;;5085577;28;20045;-63
2023/03/17 12:43:09;;;;;;;9.10;4.95;;;;;;;;;;5069163;28;20056;-63
2023/03/17 12:45:57;;;;;;;10.10;5.10;;;;;;;;;;5072627;28;20048;-62
2023/03/17 12:48:32;;;;;;;6.07;4.22;;;;;;;;;;5082599;28;20043;-62
2023/03/17 12:51:17;;;;;;;8.73;5.00;;;;;;;;;;5085782;28;20060;-63
2023/03/17 12:53:48;;;;;;;6.72;5.00;;;;;;;;;;5086756;28;20124;-62
2023/03/17 12:56:34;;;;;;;8.68;4.72;;;;;;;;;;5068774;28;20049;-62
2023/03/17 12:59:07;;;;;;;7.18;4.38;;;;;;;;;;5068705;28;20052;-63
2023/03/17 13:01:38;;;;;;;6.55;4.75;;;;;;;;;;5070141;28;20139;-64
2023/03/17 13:04:25;;;;;;;9.35;4.80;;;;;;;;;;5069909;28;20040;-63
2023/03/17 13:06:57;;;;;;;6.57;4.68;;;;;;;;;;5068663;28;20044;-62
2023/03/17 13:09:23;;;;;;;;;;;;;;;;;;5070005;28;20037;-62
2023/03/17 13:11:49;;;;;;;5.90;4.32;;;;;;;;;;5070038;28;19939;-62
2023/03/17 13:14:16;;;;;;;9.13;4.88;;;;;;;;;;5069153;28;20041;-62
2023/03/17 13:16:46;;;;;;;6.40;4.47;;;;;;;;;;5086693;28;20048;-61
2023/03/17 13:19:17;;;;;;;7.57;4.95;;;;;;;;;;5077398;28;20052;-62
2023/03/17 13:22:02;;;;;;;8.63;5.07;;;;;;;;;;5072872;28;20368;-62
2023/03/17 13:24:38;;;;;;;8.13;4.88;;;;;;;;;;5082847;28;20074;-62
2023/03/17 13:27:09;;;;;;;8.32;5.00;;;;;;;;;;5075028;28;20051;-62
2023/03/17 13:29:35;;;;;;;8.93;4.57;;;;;;;;;;5073054;28;20672;-63
2023/03/17 13:32:17;;;;;;;7.20;4.50;;;;;;;;;;5073401;28;20033;-62
2023/03/17 13:34:51;;;;;;;6.68;4.80;;;;;;;;;;5072564;28;20052;-60
2023/03/17 13:37:36;;;;;;;7.80;4.55;;;;;;;;;;5073323;28;20040;-61
2023/03/17 13:40:06;;;;;;;8.18;4.68;;;;;;;;;;5075272;28;20454;-63
2023/03/17 13:42:42;;;;;;;7.82;4.68;;;;;;;;;;5072020;28;20062;-62
2023/03/17 13:45:31;;;;;;;8.73;4.57;;;;;;;;;;5073207;28;20584;-62
2023/03/17 13:48:17;;;;;;;8.73;5.10;;;;;;;;;;5082139;28;20470;-61
2023/03/17 13:50:43;;;;;;;8.70;4.70;;;;;;;;;;5087745;28;20098;-61
2023/03/17 13:53:13;;;;;;;8.82;4.30;;;;;;;;;;5073111;28;20068;-64
2023/03/17 13:55:39;;;;;;;6.38;4.63;;;;;;;;;;5072804;28;20029;-63
2023/03/17 13:58:08;;;;;;;8.90;4.85;;;;;;;;;;5072382;28;20718;-63
2023/03/17 14:00:36;;;;;;;6.97;4.50;;;;;;;;;;5072680;28;20136;-59
2023/03/17 14:03:02;;;;;;;10.45;5.32;;;;;;;;;;5070948;28;20044;-61
2023/03/17 14:05:30;;;;;;;6.28;4.50;;;;;;;;;;5072124;28;20045;-62
2023/03/17 14:07:58;;;;;;;6.20;4.30;;;;;;;;;;5072651;28;20394;-63
2023/03/17 14:10:25;;;;;;;7.35;4.57;;;;;;;;;;5071963;28;20074;-63
2023/03/17 14:12:54;;;;;;;12.48;4.60;;;;;;;;;;5072102;28;20131;-63
2023/03/17 14:15:20;;;;;;;8.15;4.97;;;;;;;;;;5074468;28;20471;-63
2023/03/17 14:18:07;;;;;;;7.88;5.20;;;;;;;;;;5074051;28;20036;-63
2023/03/17 14:20:34;;;;;;;8.45;4.88;;;;;;;;;;5071146;28;20120;-63
2023/03/17 14:23:01;;;;;;;8.32;5.07;;;;;;;;;;5071708;28;20465;-63
2023/03/17 14:25:32;;;;;;;8.32;4.82;;;;;;;;;;5086097;28;20048;-63
2023/03/17 14:27:59;;;;;;;7.13;4.80;;;;;;;;;;5084397;28;20052;-63
2023/03/17 14:30:29;;;;;;;9.32;5.35;;;;;;;;;;5084777;28;20093;-63
2023/03/17 14:32:58;;;;;;;7.63;4.70;;;;;;;;;;5072313;28;20612;-63
2023/03/17 14:35:25;;;;;;;9.45;5.05;;;;;;;;;;5071180;28;20036;-63
2023/03/17 14:37:51;;;;;;;10.25;5.70;;;;;;;;;;5072238;28;20056;-62
2023/03/17 14:40:19;;;;;;;8.18;4.80;;;;;;;;;;5071710;28;20044;-62
2023/03/17 14:42:45;;;;;;;10.10;5.40;;;;;;;;;;5070940;28;20055;-62
2023/03/17 14:45:27;;;;;;;11.52;4.80;;;;;;;;;;5071924;28;20043;-63
2023/03/17 14:47:54;;;;;;;7.60;5.10;;;;;;;;;;5083389;28;20074;-62
2023/03/17 14:50:24;;;;;;;8.27;5.40;;;;;;;;;;5089182;28;20085;-62
2023/03/17 14:52:50;;;;;;;8.57;5.53;;;;;;;;;;5071864;28;20068;-62